createdAt,value
2018-06-30T00:00:09.749Z,63.01
2018-06-30T00:02:14.791Z,63.61
2018-06-30T00:04:19.794Z,64.07
2018-06-30T00:06:26.500Z,63.99
2018-06-30T00:08:31.693Z,64.11
2018-06-30T00:10:36.574Z,64.07
2018-06-30T00:12:41.487Z,63.94
2018-06-30T00:14:46.470Z,64.42
2018-06-30T00:16:51.395Z,64.61
2018-06-30T00:18:56.383Z,64.30
2018-06-30T00:21:01.280Z,65.12
2018-06-30T00:23:06.532Z,64.69
2018-06-30T00:25:11.477Z,64.69
2018-06-30T00:27:21.425Z,64.53
2018-06-30T00:29:26.292Z,64.76
2018-06-30T00:31:32.515Z,65.06
2018-06-30T00:33:37.739Z,65.06
2018-06-30T00:35:43.134Z,65.81
2018-06-30T00:37:48.054Z,65.49
2018-06-30T00:39:53.104Z,65.99
2018-06-30T00:41:57.849Z,66.00
2018-06-30T00:44:02.711Z,65.96
2018-06-30T00:46:07.570Z,66.67
2018-06-30T00:48:12.505Z,66.71
2018-06-30T00:50:17.301Z,66.28
2018-06-30T00:52:22.108Z,66.75
2018-06-30T00:54:27.032Z,67.48
2018-06-30T00:56:31.993Z,68.01
2018-06-30T00:58:36.697Z,67.51
2018-06-30T01:00:42.163Z,66.91
2018-06-30T01:02:46.959Z,67.06
2018-06-30T01:04:51.770Z,67.39
2018-06-30T01:06:56.722Z,67.57
2018-06-30T01:09:01.488Z,67.71
2018-06-30T01:11:06.512Z,68.16
2018-06-30T01:13:11.328Z,69.26
2018-06-30T01:15:16.238Z,68.71
2018-06-30T01:17:21.208Z,68.55
2018-06-30T01:19:25.918Z,68.75
2018-06-30T01:21:31.845Z,69.18
2018-06-30T01:23:36.687Z,69.09
2018-06-30T01:25:41.430Z,69.37
2018-06-30T01:27:46.345Z,69.56
2018-06-30T01:29:51.145Z,69.45
2018-06-30T01:31:55.993Z,69.58
2018-06-30T01:34:00.883Z,69.62
2018-06-30T01:36:05.745Z,70.20
2018-06-30T01:38:10.581Z,70.40
2018-06-30T01:40:15.365Z,69.95
2018-06-30T01:42:20.125Z,70.90
2018-06-30T01:44:24.911Z,71.10
2018-06-30T01:46:29.677Z,71.23
2018-06-30T01:48:34.768Z,71.09
2018-06-30T01:50:39.589Z,71.94
2018-06-30T01:52:44.466Z,72.17
2018-06-30T01:54:49.257Z,71.41
2018-06-30T01:56:54.162Z,71.98
2018-06-30T01:58:58.970Z,71.91
2018-06-30T02:01:03.768Z,72.31
2018-06-30T02:03:08.677Z,72.96
2018-06-30T02:05:13.553Z,72.64
2018-06-30T02:07:18.497Z,72.84
2018-06-30T02:09:23.244Z,72.48
2018-06-30T02:11:27.981Z,72.94
2018-06-30T02:13:32.971Z,73.09
2018-06-30T02:15:37.809Z,74.03
2018-06-30T02:17:42.684Z,74.17
2018-06-30T02:19:47.536Z,74.67
2018-06-30T02:21:52.602Z,73.99
2018-06-30T02:23:57.486Z,74.58
2018-06-30T02:26:02.353Z,74.58
2018-06-30T02:28:07.285Z,74.64
2018-06-30T02:30:12.078Z,74.97
2018-06-30T02:32:17.086Z,75.10
2018-06-30T02:34:21.853Z,74.93
2018-06-30T02:36:26.657Z,75.68
2018-06-30T02:38:31.478Z,75.75
2018-06-30T02:40:36.284Z,75.31
2018-06-30T02:42:41.178Z,75.13
2018-06-30T02:44:45.969Z,75.42
2018-06-30T02:46:50.798Z,76.77
2018-06-30T02:48:55.627Z,76.15
2018-06-30T02:51:00.729Z,76.05
2018-06-30T02:53:05.624Z,76.40
2018-06-30T02:55:10.453Z,76.45
2018-06-30T02:57:15.320Z,77.18
2018-06-30T02:59:20.273Z,76.96
2018-06-30T03:01:25.089Z,78.07
2018-06-30T03:03:29.993Z,76.79
2018-06-30T03:05:34.941Z,77.51
2018-06-30T03:07:39.855Z,77.84
2018-06-30T03:09:44.714Z,77.91
2018-06-30T03:11:49.554Z,78.43
2018-06-30T03:13:54.438Z,78.66
2018-06-30T03:15:59.338Z,78.68
2018-06-30T03:18:04.322Z,78.26
2018-06-30T03:20:09.196Z,78.60
2018-06-30T03:22:13.994Z,78.75
2018-06-30T03:24:18.825Z,77.81
2018-06-30T03:26:23.636Z,78.40
2018-06-30T03:28:28.553Z,79.17
2018-06-30T03:30:33.731Z,79.24
2018-06-30T03:32:38.729Z,79.26
2018-06-30T03:34:43.625Z,79.73
2018-06-30T03:36:48.329Z,79.25
2018-06-30T03:38:53.174Z,78.62
2018-06-30T03:40:58.119Z,78.92
2018-06-30T03:43:03.012Z,78.63
2018-06-30T03:45:07.895Z,78.92
2018-06-30T03:47:12.812Z,77.99
2018-06-30T03:49:17.624Z,79.50
2018-06-30T03:51:22.493Z,80.05
2018-06-30T03:53:27.372Z,79.68
2018-06-30T03:55:33.102Z,79.92
2018-06-30T03:57:37.524Z,80.25
2018-06-30T03:59:42.392Z,79.77
2018-06-30T04:01:47.301Z,79.81
2018-06-30T04:03:52.184Z,80.44
2018-06-30T04:05:57.006Z,80.73
2018-06-30T04:08:02.631Z,80.35
2018-06-30T04:10:07.415Z,80.12
2018-06-30T04:12:12.179Z,79.84
2018-06-30T04:14:16.907Z,79.99
2018-06-30T04:16:21.813Z,79.08
2018-06-30T04:18:26.670Z,79.30
2018-06-30T04:20:31.439Z,79.56
2018-06-30T04:22:36.407Z,79.52
2018-06-30T04:24:41.364Z,79.75
2018-06-30T04:26:46.311Z,79.56
2018-06-30T04:28:51.125Z,79.68
2018-06-30T04:30:56.146Z,79.47
2018-06-30T04:33:00.996Z,79.59
2018-06-30T04:35:07.276Z,79.44
2018-06-30T04:37:12.785Z,79.47
2018-06-30T04:39:17.652Z,79.15
2018-06-30T04:41:22.736Z,78.85
2018-06-30T04:43:27.672Z,78.75
2018-06-30T04:45:32.708Z,78.22
2018-06-30T04:47:37.802Z,78.25
2018-06-30T04:49:42.823Z,77.78
2018-06-30T04:51:47.642Z,78.43
2018-06-30T04:53:52.428Z,77.74
2018-06-30T04:55:57.285Z,77.93
2018-06-30T04:58:02.195Z,78.22
2018-06-30T05:00:07.220Z,78.54
2018-06-30T05:02:12.028Z,78.20
2018-06-30T05:04:17.118Z,78.76
2018-06-30T05:06:21.955Z,78.16
2018-06-30T05:08:27.004Z,77.86
2018-06-30T05:10:31.820Z,77.57
2018-06-30T05:12:36.692Z,77.41
2018-06-30T05:14:41.536Z,77.85
2018-06-30T05:16:46.384Z,78.04
2018-06-30T05:18:51.257Z,76.83
2018-06-30T05:20:56.275Z,76.97
2018-06-30T05:23:01.243Z,76.92
2018-06-30T05:25:06.317Z,76.99
2018-06-30T05:27:11.282Z,76.41
2018-06-30T05:29:16.287Z,76.30
2018-06-30T05:31:21.312Z,76.61
2018-06-30T05:33:26.469Z,75.53
2018-06-30T05:35:34.003Z,75.80
2018-06-30T05:37:39.511Z,76.13
2018-06-30T05:39:44.734Z,75.67
2018-06-30T05:41:49.664Z,75.83
2018-06-30T05:43:55.728Z,75.29
2018-06-30T05:46:00.892Z,75.16
2018-06-30T05:48:06.356Z,74.84
2018-06-30T05:50:11.555Z,74.93
2018-06-30T05:52:16.575Z,75.43
2018-06-30T05:54:21.498Z,75.34
2018-06-30T05:56:26.221Z,74.73
2018-06-30T05:58:31.277Z,74.69
2018-06-30T06:00:36.236Z,74.09
2018-06-30T06:02:41.074Z,73.87
2018-06-30T06:04:45.872Z,73.65
2018-06-30T06:06:50.664Z,73.51
2018-06-30T06:08:55.715Z,73.23
2018-06-30T06:11:00.522Z,73.37
2018-06-30T06:13:05.362Z,72.51
2018-06-30T06:15:10.275Z,72.53
2018-06-30T06:17:15.154Z,71.49
2018-06-30T06:19:19.918Z,71.87
2018-06-30T06:21:24.742Z,71.19
2018-06-30T06:23:29.586Z,70.50
2018-06-30T06:25:34.517Z,70.98
2018-06-30T06:27:39.754Z,70.08
2018-06-30T06:29:44.836Z,70.22
2018-06-30T06:31:50.775Z,68.51
2018-06-30T06:33:55.650Z,69.54
2018-06-30T06:36:00.815Z,69.69
2018-06-30T06:38:05.841Z,69.60
2018-06-30T06:40:10.832Z,68.50
2018-06-30T06:42:15.833Z,68.38
2018-06-30T06:44:20.702Z,67.48
2018-06-30T06:46:25.407Z,66.52
2018-06-30T06:48:30.496Z,66.59
2018-06-30T06:50:35.326Z,66.61
2018-06-30T06:52:40.173Z,66.39
2018-06-30T06:54:45.057Z,66.64
2018-06-30T06:56:50.030Z,66.94
2018-06-30T06:58:55.053Z,65.16
2018-06-30T07:01:00.054Z,65.46
2018-06-30T07:03:05.089Z,65.00
2018-06-30T07:05:10.034Z,64.94
2018-06-30T07:07:14.915Z,63.93
2018-06-30T07:09:19.925Z,63.16
2018-06-30T07:11:24.785Z,62.96
2018-06-30T07:13:29.599Z,62.76
2018-06-30T07:15:34.744Z,62.90
2018-06-30T07:17:39.830Z,61.82
2018-06-30T07:19:44.707Z,61.01
2018-06-30T07:21:55.173Z,61.47
2018-06-30T07:24:03.551Z,61.17
2018-06-30T07:26:12.099Z,61.62
2018-06-30T07:28:22.345Z,61.75
2018-06-30T07:30:30.726Z,61.17
2018-06-30T07:32:37.361Z,61.00
2018-06-30T07:34:42.187Z,60.53
2018-06-30T07:36:47.034Z,60.19
2018-06-30T07:38:52.591Z,60.49
2018-06-30T07:40:57.678Z,59.81
2018-06-30T07:43:02.622Z,59.79
2018-06-30T07:45:07.619Z,59.74
2018-06-30T07:47:13.237Z,59.09
2018-06-30T07:49:18.109Z,58.65
2018-06-30T07:51:23.480Z,59.09
2018-06-30T07:53:28.287Z,58.41
2018-06-30T07:55:33.301Z,59.36
2018-06-30T07:57:38.180Z,59.50
2018-06-30T07:59:43.012Z,58.30
2018-06-30T08:01:47.838Z,57.73
2018-06-30T08:03:52.754Z,57.90
2018-06-30T08:05:57.882Z,57.76
2018-06-30T08:08:03.225Z,57.55
2018-06-30T08:10:08.208Z,56.60
2018-06-30T08:12:13.024Z,55.69
2018-06-30T08:14:18.299Z,56.02
2018-06-30T08:16:33.448Z,55.93
2018-06-30T08:18:38.290Z,56.14
2018-06-30T08:20:43.471Z,56.27
2018-06-30T08:22:48.705Z,56.23
2018-06-30T08:24:53.653Z,56.29
2018-06-30T08:26:58.463Z,56.46
2018-06-30T08:29:03.483Z,55.28
2018-06-30T08:31:08.299Z,55.80
2018-06-30T08:33:13.371Z,54.90
2018-06-30T08:35:18.354Z,54.81
2018-06-30T08:37:23.979Z,55.83
2018-06-30T08:39:28.859Z,55.57
2018-06-30T08:41:33.744Z,54.61
2018-06-30T08:43:38.810Z,54.42
2018-06-30T08:45:43.798Z,52.37
2018-06-30T08:47:48.606Z,52.14
2018-06-30T08:49:53.669Z,51.53
2018-06-30T08:51:58.725Z,53.05
2018-06-30T08:54:03.615Z,52.38
2018-06-30T08:56:08.531Z,50.92
2018-06-30T08:58:13.380Z,50.61
2018-06-30T09:00:18.251Z,50.26
2018-06-30T09:02:23.092Z,50.72
2018-06-30T09:04:28.133Z,51.21
2018-06-30T09:06:32.988Z,50.31
2018-06-30T09:08:38.111Z,50.29
2018-06-30T09:10:43.073Z,51.29
2018-06-30T09:12:48.372Z,49.93
2018-06-30T09:14:53.304Z,50.09
2018-06-30T09:16:58.376Z,50.82
2018-06-30T09:19:03.244Z,51.11
2018-06-30T09:21:08.250Z,50.91
2018-06-30T09:23:13.055Z,50.28
2018-06-30T09:25:17.909Z,49.60
2018-06-30T09:27:22.798Z,49.63
2018-06-30T09:29:27.680Z,49.79
2018-06-30T09:31:32.615Z,48.87
2018-06-30T09:33:37.600Z,48.87
2018-06-30T09:35:42.694Z,49.36
2018-06-30T09:37:47.691Z,48.13
2018-06-30T09:39:52.520Z,48.23
2018-06-30T09:41:57.780Z,47.69
2018-06-30T09:44:02.629Z,48.37
2018-06-30T09:46:08.046Z,47.78
2018-06-30T09:48:13.280Z,46.78
2018-06-30T09:50:18.236Z,47.51
2018-06-30T09:52:23.199Z,46.82
2018-06-30T09:54:28.911Z,47.60
2018-06-30T09:56:34.895Z,46.62
2018-06-30T09:58:40.400Z,47.71
2018-06-30T10:00:55.213Z,47.17
2018-06-30T10:03:00.593Z,47.04
2018-06-30T10:05:06.102Z,46.28
2018-06-30T10:07:19.498Z,46.61
2018-06-30T10:09:24.293Z,45.60
2018-06-30T10:11:29.403Z,45.94
2018-06-30T10:13:34.583Z,45.80
2018-06-30T10:15:39.586Z,45.21
2018-06-30T10:17:45.104Z,45.81
2018-06-30T10:19:49.937Z,45.79
2018-06-30T10:21:55.247Z,45.99
2018-06-30T10:24:00.099Z,45.42
2018-06-30T10:26:04.985Z,46.07
2018-06-30T10:28:10.080Z,45.69
2018-06-30T10:30:14.939Z,44.76
2018-06-30T10:32:19.770Z,44.54
2018-06-30T10:34:24.630Z,44.81
2018-06-30T10:36:29.433Z,43.81
2018-06-30T10:38:34.344Z,44.87
2018-06-30T10:40:39.368Z,44.06
2018-06-30T10:42:44.507Z,44.94
2018-06-30T10:44:49.778Z,45.17
2018-06-30T10:46:55.128Z,44.47
2018-06-30T10:49:00.232Z,43.93
2018-06-30T10:51:05.771Z,44.56
2018-06-30T10:53:10.696Z,43.05
2018-06-30T10:55:15.778Z,42.44
2018-06-30T10:57:21.070Z,42.64
2018-06-30T10:59:26.274Z,43.07
2018-06-30T11:01:31.975Z,42.69
2018-06-30T11:03:37.337Z,42.83
2018-06-30T11:05:42.510Z,42.71
2018-06-30T11:07:47.951Z,42.93
2018-06-30T11:09:53.226Z,42.17
2018-06-30T11:11:58.459Z,42.36
2018-06-30T11:14:03.952Z,42.39
2018-06-30T11:16:09.081Z,42.04
2018-06-30T11:18:14.466Z,42.33
2018-06-30T11:20:19.540Z,42.08
2018-06-30T11:22:24.973Z,41.77
2018-06-30T11:24:29.901Z,42.73
2018-06-30T11:26:35.145Z,41.44
2018-06-30T11:28:39.990Z,40.84
2018-06-30T11:30:45.396Z,40.58
2018-06-30T11:32:50.506Z,40.58
2018-06-30T11:34:55.381Z,40.46
2018-06-30T11:37:00.762Z,41.15
2018-06-30T11:39:09.555Z,41.57
2018-06-30T11:41:14.438Z,41.15
2018-06-30T11:43:19.845Z,40.34
2018-06-30T11:45:28.212Z,39.92
2018-06-30T11:47:33.446Z,40.41
2018-06-30T11:49:38.416Z,40.88
2018-06-30T11:51:43.276Z,39.68
2018-06-30T11:53:48.105Z,40.82
2018-06-30T11:55:53.136Z,40.96
2018-06-30T11:57:58.438Z,40.49
2018-06-30T12:00:03.450Z,39.91
2018-06-30T12:02:09.365Z,39.26
2018-06-30T12:04:14.899Z,39.42
2018-06-30T12:06:20.088Z,39.14
2018-06-30T12:08:24.846Z,38.48
2018-06-30T12:10:29.607Z,38.46
2018-06-30T12:12:34.810Z,38.11
2018-06-30T12:14:39.670Z,38.30
2018-06-30T12:16:44.539Z,36.86
2018-06-30T12:18:49.415Z,37.33
2018-06-30T12:20:54.428Z,37.79
2018-06-30T12:22:59.275Z,37.47
2018-06-30T12:25:04.104Z,36.03
2018-06-30T12:27:08.921Z,36.75
2018-06-30T12:29:13.782Z,37.61
2018-06-30T12:31:19.460Z,37.13
2018-06-30T12:33:24.303Z,36.17
2018-06-30T12:35:29.181Z,36.56
2018-06-30T12:37:33.922Z,36.50
2018-06-30T12:39:38.961Z,36.15
2018-06-30T12:41:43.985Z,35.51
2018-06-30T12:43:49.044Z,35.62
2018-06-30T12:45:53.838Z,35.01
2018-06-30T12:47:58.646Z,35.82
2018-06-30T12:50:03.658Z,34.33
2018-06-30T12:52:08.622Z,35.41
2018-06-30T12:54:13.750Z,35.35
2018-06-30T12:56:18.513Z,35.96
2018-06-30T12:58:23.366Z,34.01
2018-06-30T13:00:28.130Z,34.74
2018-06-30T13:02:34.181Z,33.45
2018-06-30T13:04:39.178Z,33.11
2018-06-30T13:06:44.037Z,32.97
2018-06-30T13:08:49.472Z,33.96
2018-06-30T13:10:54.374Z,34.31
2018-06-30T13:12:59.305Z,33.53
2018-06-30T13:15:04.214Z,34.60
2018-06-30T13:17:09.117Z,33.47
2018-06-30T13:19:14.231Z,33.71
2018-06-30T13:21:19.450Z,34.83
2018-06-30T13:23:24.390Z,32.41
2018-06-30T13:25:29.334Z,33.59
2018-06-30T13:27:34.319Z,33.39
2018-06-30T13:29:39.220Z,32.67
2018-06-30T13:31:44.126Z,33.52
2018-06-30T13:33:49.033Z,31.66
2018-06-30T13:35:54.099Z,33.43
2018-06-30T13:37:59.217Z,32.16
2018-06-30T13:40:04.362Z,32.54
2018-06-30T13:42:10.229Z,32.02
2018-06-30T13:44:15.531Z,31.34
2018-06-30T13:46:20.467Z,30.96
2018-06-30T13:48:25.480Z,31.67
2018-06-30T13:50:31.054Z,31.77
2018-06-30T13:52:37.859Z,33.28
2018-06-30T13:54:42.960Z,31.97
2018-06-30T13:56:47.601Z,30.96
2018-06-30T13:58:52.697Z,31.49
2018-06-30T14:00:57.578Z,31.36
2018-06-30T14:03:02.388Z,30.83
2018-06-30T14:05:07.587Z,31.61
2018-06-30T14:07:12.763Z,31.75
2018-06-30T14:09:17.630Z,30.73
2018-06-30T14:11:22.520Z,31.35
2018-06-30T14:13:27.612Z,31.19
2018-06-30T14:15:32.572Z,31.40
2018-06-30T14:17:37.557Z,31.35
2018-06-30T14:19:42.317Z,30.53
2018-06-30T14:21:47.186Z,31.10
2018-06-30T14:23:52.485Z,30.54
2018-06-30T14:25:57.465Z,30.45
2018-06-30T14:28:02.372Z,31.58
2018-06-30T14:30:10.452Z,30.83
2018-06-30T14:32:15.456Z,30.81
2018-06-30T14:34:20.293Z,31.07
2018-06-30T14:36:25.285Z,31.90
2018-06-30T14:38:45.444Z,31.10
2018-06-30T14:40:50.497Z,31.31
2018-06-30T14:42:55.738Z,29.78
2018-06-30T14:45:00.749Z,28.66
2018-06-30T14:47:05.782Z,29.37
2018-06-30T14:49:11.265Z,28.79
2018-06-30T14:51:16.474Z,27.05
2018-06-30T14:53:21.412Z,27.30
2018-06-30T14:55:26.521Z,26.80
2018-06-30T14:57:31.588Z,26.90
2018-06-30T14:59:36.513Z,27.76
2018-06-30T15:01:41.336Z,27.52
2018-06-30T15:03:46.107Z,27.42
2018-06-30T15:05:51.009Z,27.43
2018-06-30T15:07:55.833Z,27.12
2018-06-30T15:10:00.711Z,27.28
2018-06-30T15:12:05.656Z,27.50
2018-06-30T15:14:10.683Z,27.37
2018-06-30T15:16:15.610Z,27.43
2018-06-30T15:18:20.470Z,27.08
2018-06-30T15:20:25.315Z,27.57
2018-06-30T15:22:30.438Z,27.42
2018-06-30T15:24:35.253Z,26.89
2018-06-30T15:26:40.106Z,27.87
2018-06-30T15:28:45.035Z,27.52
2018-06-30T15:30:49.997Z,28.79
2018-06-30T15:32:55.103Z,27.53
2018-06-30T15:35:01.801Z,27.83
2018-06-30T15:37:09.404Z,28.04
2018-06-30T15:39:14.231Z,27.80
2018-06-30T15:41:19.384Z,27.67
2018-06-30T15:43:24.645Z,27.17
2018-06-30T15:45:42.627Z,26.86
2018-06-30T15:47:47.453Z,26.13
2018-06-30T15:49:52.474Z,26.56
2018-06-30T15:51:57.862Z,25.75
2018-06-30T15:54:02.895Z,25.81
2018-06-30T15:56:07.833Z,26.65
2018-06-30T15:58:12.763Z,25.40
2018-06-30T16:00:17.866Z,25.66
2018-06-30T16:02:23.417Z,25.56
2018-06-30T16:04:28.378Z,25.21
2018-06-30T16:06:33.330Z,24.63
2018-06-30T16:08:38.618Z,23.76
2018-06-30T16:10:43.475Z,24.26
2018-06-30T16:12:48.259Z,24.29
2018-06-30T16:16:58.251Z,23.07
2018-06-30T16:19:03.208Z,23.08
2018-06-30T16:21:08.104Z,23.61
2018-06-30T16:23:12.928Z,22.84
2018-06-30T16:25:17.906Z,22.93
2018-06-30T16:27:22.706Z,22.55
2018-06-30T16:29:27.538Z,22.25
2018-06-30T16:31:32.462Z,21.51
2018-06-30T16:33:37.871Z,21.50
2018-06-30T16:35:42.646Z,21.66
2018-06-30T16:37:47.649Z,22.19
2018-06-30T16:39:52.732Z,21.40
2018-06-30T16:41:59.368Z,21.71
2018-06-30T16:44:04.581Z,20.53
2018-06-30T16:46:09.476Z,20.80
2018-06-30T16:48:14.441Z,20.94
2018-06-30T16:50:19.305Z,20.15
2018-06-30T16:52:24.604Z,19.39
2018-06-30T16:54:29.529Z,19.64
2018-06-30T16:56:34.532Z,19.90
2018-06-30T16:58:39.751Z,18.71
2018-06-30T17:00:44.613Z,17.85
2018-06-30T17:02:49.647Z,18.13
2018-06-30T17:04:55.143Z,18.02
2018-06-30T17:07:00.642Z,18.36
2018-06-30T17:09:09.529Z,17.46
2018-06-30T17:11:14.493Z,17.78
2018-06-30T17:13:19.327Z,17.95
2018-06-30T17:15:24.210Z,18.32
2018-06-30T17:17:29.190Z,18.41
2018-06-30T17:19:35.420Z,18.28
2018-06-30T17:21:40.358Z,17.89
2018-06-30T17:23:45.218Z,17.56
2018-06-30T17:25:50.154Z,18.56
2018-06-30T17:27:54.994Z,19.32
2018-06-30T17:29:59.891Z,18.87
2018-06-30T17:32:05.333Z,18.57
2018-06-30T17:34:10.322Z,17.54
2018-06-30T17:36:15.269Z,17.60
2018-06-30T17:38:20.283Z,17.98
2018-06-30T17:40:25.326Z,18.63
2018-06-30T17:42:30.237Z,17.83
2018-06-30T17:44:35.199Z,18.16
2018-06-30T17:46:40.232Z,17.80
2018-06-30T17:48:45.369Z,18.68
2018-06-30T17:50:50.384Z,18.21
2018-06-30T17:52:55.654Z,18.60
2018-06-30T17:55:00.662Z,19.62
2018-06-30T17:57:05.844Z,18.94
2018-06-30T17:59:10.694Z,18.64
2018-06-30T18:01:15.648Z,18.62
2018-06-30T18:03:20.408Z,18.67
2018-06-30T18:05:25.454Z,19.26
2018-06-30T18:07:30.348Z,19.24
2018-06-30T18:09:35.150Z,19.61
2018-06-30T18:11:41.463Z,19.90
2018-06-30T18:13:46.540Z,19.29
2018-06-30T18:15:51.453Z,18.87
2018-06-30T18:17:56.386Z,19.62
2018-06-30T18:20:01.407Z,19.59
2018-06-30T18:22:06.447Z,20.26
2018-06-30T18:24:11.318Z,19.54
2018-06-30T18:26:16.250Z,20.10
2018-06-30T18:28:21.178Z,19.50
2018-06-30T18:30:26.043Z,20.04
2018-06-30T18:32:30.867Z,20.09
2018-06-30T18:34:35.735Z,19.85
2018-06-30T18:36:40.723Z,21.15
2018-06-30T18:38:45.070Z,21.80
2018-06-30T18:40:49.770Z,22.51
2018-06-30T18:42:54.792Z,21.68
2018-06-30T18:44:59.565Z,22.56
2018-06-30T18:47:04.469Z,23.26
2018-06-30T18:49:09.274Z,23.21
2018-06-30T18:51:14.103Z,23.04
2018-06-30T18:53:18.833Z,24.27
2018-06-30T18:55:23.686Z,23.94
2018-06-30T18:57:28.065Z,24.37
2018-06-30T18:59:32.929Z,23.91
2018-06-30T19:01:37.469Z,24.80
2018-06-30T19:03:42.291Z,24.16
2018-06-30T19:05:47.250Z,23.98
2018-06-30T19:07:52.181Z,24.19
2018-06-30T19:09:57.136Z,24.71
2018-06-30T19:12:02.105Z,25.10
2018-06-30T19:14:08.432Z,25.32
2018-06-30T19:16:13.104Z,24.90
2018-06-30T19:18:20.248Z,25.92
2018-06-30T19:20:25.362Z,25.48
2018-06-30T19:22:30.543Z,25.52
2018-06-30T19:24:35.882Z,25.55
2018-06-30T19:26:41.029Z,25.72
2018-06-30T19:28:46.199Z,26.70
2018-06-30T19:30:51.263Z,26.70
2018-06-30T19:32:56.245Z,26.42
2018-06-30T19:35:01.669Z,26.50
2018-06-30T19:37:06.765Z,26.79
2018-06-30T19:39:13.369Z,27.42
2018-06-30T19:41:18.370Z,27.48
2018-06-30T19:43:23.144Z,26.93
2018-06-30T19:45:28.526Z,26.82
2018-06-30T19:47:34.943Z,27.50
2018-06-30T19:49:40.070Z,27.63
2018-06-30T19:51:45.157Z,28.13
2018-06-30T19:53:50.012Z,28.29
2018-06-30T19:55:55.531Z,28.31
2018-06-30T19:58:00.952Z,28.52
2018-06-30T20:00:07.208Z,28.48
2018-06-30T20:02:12.436Z,28.25
2018-06-30T20:04:17.435Z,29.08
2018-06-30T20:06:22.369Z,28.56
2018-06-30T20:08:27.661Z,28.29
2018-06-30T20:10:32.697Z,28.90
2018-06-30T20:12:37.400Z,28.47
2018-06-30T20:14:42.399Z,29.26
2018-06-30T20:16:47.276Z,29.14
2018-06-30T20:18:52.107Z,28.64
2018-06-30T20:20:57.210Z,29.41
2018-06-30T20:23:02.069Z,29.79
2018-06-30T20:25:07.410Z,29.50
2018-06-30T20:27:12.271Z,29.47
2018-06-30T20:29:17.896Z,29.00
2018-06-30T20:31:22.765Z,30.09
2018-06-30T20:33:27.984Z,30.16
2018-06-30T20:35:34.069Z,29.64
2018-06-30T20:37:39.752Z,29.47
2018-06-30T20:39:45.011Z,29.63
2018-06-30T20:41:51.130Z,30.36
2018-06-30T20:43:56.406Z,30.68
2018-06-30T20:46:02.077Z,30.44
2018-06-30T20:48:08.113Z,30.15
2018-06-30T20:50:14.235Z,30.47
2018-06-30T20:52:21.296Z,29.76
2018-06-30T20:54:27.613Z,30.96
2018-06-30T20:56:35.958Z,31.95
2018-06-30T20:58:45.799Z,31.75
2018-06-30T21:00:51.441Z,31.95
2018-06-30T21:02:58.762Z,31.71
2018-06-30T21:05:05.923Z,31.50
2018-06-30T21:07:11.971Z,31.43
2018-06-30T21:09:18.188Z,31.27
2018-06-30T21:11:23.668Z,32.17
2018-06-30T21:13:28.787Z,32.02
2018-06-30T21:15:35.438Z,31.74
2018-06-30T21:17:41.588Z,32.99
2018-06-30T21:19:46.947Z,32.03
2018-06-30T21:21:52.642Z,32.33
2018-06-30T21:23:57.804Z,32.30
2018-06-30T21:26:03.395Z,32.30
2018-06-30T21:28:09.005Z,32.29
2018-06-30T21:30:14.113Z,32.63
2018-06-30T21:32:22.989Z,32.81
2018-06-30T21:34:29.703Z,33.06
2018-06-30T21:36:36.839Z,32.78
2018-06-30T21:38:44.087Z,32.91
2018-06-30T21:40:52.027Z,32.84
2018-06-30T21:42:57.459Z,33.21
2018-06-30T21:45:03.271Z,32.43
2018-06-30T21:47:09.541Z,32.56
2018-06-30T21:49:14.588Z,32.61
2018-06-30T21:51:19.485Z,33.08
2018-06-30T21:53:24.233Z,31.96
2018-06-30T21:55:29.450Z,32.42
2018-06-30T21:57:34.593Z,32.05
2018-06-30T21:59:39.582Z,32.19
2018-06-30T22:01:46.991Z,31.53
2018-06-30T22:03:52.731Z,31.73
2018-06-30T22:05:58.594Z,30.31
2018-06-30T22:08:03.524Z,30.86
2018-06-30T22:10:10.648Z,30.22
2018-06-30T22:12:15.728Z,30.34
2018-06-30T22:14:20.756Z,30.44
2018-06-30T22:16:25.968Z,30.05
2018-06-30T22:18:30.956Z,29.73
2018-06-30T22:20:36.536Z,29.73
2018-06-30T22:22:41.556Z,30.61
2018-06-30T22:24:46.711Z,29.93
2018-06-30T22:26:51.950Z,30.28
2018-06-30T22:28:57.570Z,30.62
2018-06-30T22:31:02.577Z,30.79
2018-06-30T22:33:07.850Z,30.55
2018-06-30T22:35:12.893Z,30.14
2018-06-30T22:37:17.968Z,31.10
2018-06-30T22:39:39.243Z,30.53
2018-06-30T22:41:44.235Z,30.51
2018-06-30T22:43:49.881Z,31.03
2018-06-30T22:45:54.927Z,31.13
2018-06-30T22:47:59.837Z,31.47
2018-06-30T22:50:05.234Z,31.28
2018-06-30T22:52:10.391Z,31.26
2018-06-30T22:54:15.668Z,31.45
2018-06-30T22:56:20.752Z,31.13
2018-06-30T22:58:25.685Z,31.87
2018-06-30T23:00:31.899Z,31.67
2018-06-30T23:02:36.702Z,30.79
2018-06-30T23:04:42.263Z,31.68
2018-06-30T23:06:47.195Z,31.81
2018-06-30T23:08:54.594Z,31.18
2018-06-30T23:10:59.748Z,31.89
2018-06-30T23:13:04.968Z,32.09
2018-06-30T23:15:10.218Z,32.41
2018-06-30T23:17:15.226Z,31.71
2018-06-30T23:19:20.353Z,31.66
2018-06-30T23:21:25.481Z,31.65
2018-06-30T23:23:30.577Z,31.81
2018-06-30T23:25:36.157Z,32.56
2018-06-30T23:27:41.231Z,32.00
2018-06-30T23:29:46.214Z,32.38
2018-06-30T23:31:51.249Z,32.21
2018-06-30T23:33:56.176Z,32.30
2018-06-30T23:36:01.358Z,32.54
2018-06-30T23:38:06.641Z,32.49
2018-06-30T23:40:11.944Z,32.67
2018-06-30T23:42:16.982Z,32.69
2018-06-30T23:44:22.043Z,32.43
2018-06-30T23:46:27.274Z,31.69
2018-06-30T23:48:33.048Z,32.47
2018-06-30T23:50:38.293Z,32.67
2018-06-30T23:52:43.602Z,33.16
2018-06-30T23:54:48.558Z,33.19
2018-06-30T23:56:54.010Z,33.51
2018-06-30T23:58:58.867Z,32.50
